Airfield :
LOGIN :

Register | Disclaimer

   EN    FR    IT 

 










Legend :    VFR   Marginal VFR   IFR   Intensive IFR   Very Intensive IFR
Visi :
Ceiling :
>= 8 km
>= 3000ft
5 to 8 km
1000 to 3000 ft
1500m to 5 km
500 to 1000 ft
800 to 1500m
200 to 500 ft
< 800m
< 200 ft
Symbols :   Thunderstorms  Fog  Heavy snow  Heavy precipitations  Wind > 20 kt
SIGMETs :     Misc.  Thunderstorms  Icing  Turbulence  Mountain Waves  Volcanic Ashes







- Airport Elevation : 1682 ft
- IATA code : VIT


LEVT - Vitoria Gasteiz

CURRENT METAR :
  • 250400Z 24009KT 9999 FEW020 SCT040 06/03 Q1003

EXPIRED METARs :
  • 250330Z 21013KT 9999 FEW020 SCT040 07/03 Q1003
  • 250300Z 21015KT 170V240 9999 FEW020 SCT040 07/05 Q1003
  • 250230Z 21011KT 9999 FEW020 SCT040 07/05 Q1002
  • 250200Z 21010KT 180V240 9999 SCT020 SCT040 08/06 Q1002
  • 250130Z 21011KT 9999 -RA SCT020 SCT040 BKN075 08/06 Q1002

TAF COR TAF LEVT
Valid from the 25 at 00:00 until the 26 at 00:00 UTC


250326Z 2500/2524 21012KT 9999 SCT040 TX13/2516Z TN05/2600Z
PROB40
TEMPO 2500/2506 SHRA SCT030TCU
TEMPO 2500/2524 22015G30KT
PROB40
TEMPO 2509/2518 SHRA TS SCT025TCU SCT030CB
PROB40
TEMPO 2509/2521 23020G35KT
No reported NOTAMs for that airfield.



MET'MAP, your aeronautical weather chart ! - Copyright ORBIFLY December 2007 - Disclaimer

ORBIFLY MET'MAP TEAM :

Programming & Development : Alexandra Zaïnal
Concept & Development : Baudouin d'Aumeries
Co-Development & Prog : Marc-Olivier Méhu
Technical & hardware support : Manuel Goepfert

Contact : metmap@orbifly.com




SOURCES & CREDITS :

   NOAA